Time;durP1;ratioP1;P1;durP2;ratioP2;P2;SDS_P1;SDS_P2;PMS_P1;PMS_P2;Temp;Humidity;BMP_temperature;BMP_pressure;BME280_temperature;BME280_humidity;BME280_pressure;Samples;Min_cycle;Max_cycle;Signal;HPM_P1;HPM_P2
2021/01/13 00:01:29;;;;;;;0.80;0.80;;;;;;;2.60;83.63;97924.91;5074160;28;20101;-62
2021/01/13 00:03:54;;;;;;;0.80;0.80;;;;;;;2.55;83.30;97924.91;5074160;28;20037;-63
2021/01/13 00:06:20;;;;;;;1.10;1.10;;;;;;;2.64;83.08;97906.34;5074978;28;20086;-63
2021/01/13 00:08:45;;;;;;;0.73;0.73;;;;;;;2.58;82.96;97904.69;5073209;28;20408;-63
2021/01/13 00:11:13;;;;;;;1.07;0.80;;;;;;;2.59;82.82;97919.00;5073162;28;20623;-63
2021/01/13 00:13:38;;;;;;;1.00;1.00;;;;;;;2.61;82.72;97913.94;5073599;28;20034;-63
2021/01/13 00:16:04;;;;;;;0.90;0.90;;;;;;;2.69;81.91;97912.25;5074761;28;20024;-63
2021/01/13 00:18:29;;;;;;;0.87;0.83;;;;;;;2.67;82.34;97913.97;5073806;28;20097;-62
2021/01/13 00:20:54;;;;;;;1.23;0.90;;;;;;;2.64;82.14;97907.19;5074473;28;20028;-63
2021/01/13 00:23:20;;;;;;;1.67;1.10;;;;;;;2.57;82.31;97909.72;5073654;28;20404;-63
2021/01/13 00:25:45;;;;;;;1.00;1.00;;;;;;;2.56;82.81;97918.16;5074222;28;20453;-63
2021/01/13 00:28:10;;;;;;;0.93;0.93;;;;;;;2.53;82.75;97930.81;5072934;28;20051;-63
2021/01/13 00:30:36;;;;;;;0.90;0.90;;;;;;;2.56;83.05;97935.88;5074986;28;20119;-63
2021/01/13 00:33:01;;;;;;;1.00;1.00;;;;;;;2.53;82.43;97934.19;5073289;28;20028;-63
2021/01/13 00:35:27;;;;;;;1.10;1.00;;;;;;;2.48;82.58;97937.53;5074822;28;20133;-63
2021/01/13 00:37:52;;;;;;;1.03;1.03;;;;;;;2.47;83.77;97945.97;5072833;28;20048;-63
2021/01/13 00:40:17;;;;;;;1.33;1.23;;;;;;;2.41;83.93;97943.44;5074305;28;20028;-63
2021/01/13 00:42:45;;;;;;;1.50;1.40;;;;;;;2.41;84.02;97948.50;5072512;28;20107;-63
2021/01/13 00:45:13;;;;;;;1.30;1.20;;;;;;;2.36;83.30;97958.59;5074910;28;20040;-63
2021/01/13 00:47:40;;;;;;;1.27;1.17;;;;;;;2.51;81.81;97973.81;5073857;28;20052;-63
2021/01/13 00:50:06;;;;;;;2.03;1.30;;;;;;;2.67;80.49;97970.44;5074232;28;20046;-63
2021/01/13 00:52:31;;;;;;;1.87;1.17;;;;;;;2.63;80.55;97978.06;5073625;28;20032;-63
2021/01/13 00:54:57;;;;;;;1.00;1.00;;;;;;;2.63;80.70;97983.94;5073536;28;20353;-63
2021/01/13 00:57:22;;;;;;;1.37;1.30;;;;;;;2.67;80.52;97975.50;5073678;28;20020;-63
2021/01/13 00:59:48;;;;;;;1.17;1.10;;;;;;;2.69;80.04;97981.44;5072980;28;20171;-63
2021/01/13 01:02:13;;;;;;;1.50;1.40;;;;;;;2.66;80.40;97983.13;5073447;28;20036;-63
2021/01/13 01:04:38;;;;;;;1.30;1.20;;;;;;;2.66;80.01;97993.25;5072133;28;20396;-63
2021/01/13 01:07:05;;;;;;;1.67;1.57;;;;;;;2.57;80.10;97996.59;5073142;28;20108;-63
2021/01/13 01:09:30;;;;;;;1.63;1.57;;;;;;;2.63;80.24;97999.13;5071871;28;20107;-63
2021/01/13 01:11:56;;;;;;;1.50;1.40;;;;;;;2.69;80.23;97999.16;5053884;28;20094;-63
2021/01/13 01:14:21;;;;;;;1.70;1.60;;;;;;;2.62;79.70;97991.53;5072367;28;20032;-62
2021/01/13 01:16:46;;;;;;;1.87;1.70;;;;;;;2.65;79.99;97996.59;5073060;28;20086;-62
2021/01/13 01:19:12;;;;;;;2.03;1.93;;;;;;;2.62;80.41;97994.94;5072688;28;20456;-62
2021/01/13 01:21:39;;;;;;;1.90;1.80;;;;;;;2.65;80.50;98004.19;5072680;28;20024;-62
2021/01/13 01:24:05;;;;;;;2.13;2.03;;;;;;;2.65;80.36;98011.78;5074117;28;20020;-62
2021/01/13 01:26:31;;;;;;;1.60;1.50;;;;;;;2.56;80.70;98015.13;5072898;28;20032;-62
2021/01/13 01:28:56;;;;;;;1.67;1.57;;;;;;;2.49;81.17;98021.03;5071021;28;20334;-63
2021/01/13 01:31:21;;;;;;;2.47;2.27;;;;;;;2.36;81.97;98018.44;5073400;28;20035;-62
2021/01/13 01:33:47;;;;;;;2.13;2.00;;;;;;;2.40;82.35;98021.00;5072398;28;20514;-62
2021/01/13 01:36:16;;;;;;;2.90;2.70;;;;;;;2.37;82.54;98021.00;5072974;28;20442;-62
2021/01/13 01:38:42;;;;;;;2.90;2.70;;;;;;;2.20;83.97;98007.44;5071552;28;20048;-62
2021/01/13 01:41:09;;;;;;;2.97;2.50;;;;;;;2.17;83.96;98020.91;5073329;28;20039;-62
2021/01/13 01:43:35;;;;;;;2.60;2.40;;;;;;;2.07;84.85;98025.94;5071353;28;20039;-62
2021/01/13 01:46:01;;;;;;;4.00;3.60;;;;;;;2.07;84.98;98020.88;5073179;28;20028;-62
2021/01/13 01:48:31;;;;;;;3.90;3.50;;;;;;;2.00;85.53;98031.78;5072641;28;20033;-62
2021/01/13 01:50:59;;;;;;;3.47;3.17;;;;;;;1.98;86.08;98033.47;5073086;28;20061;-62
2021/01/13 01:53:37;;;;;;;4.60;4.20;;;;;;;1.98;85.63;98031.78;5072658;28;20502;-62
2021/01/13 01:56:09;;;;;;;3.40;2.93;;;;;;;1.92;86.25;98036.78;5072937;28;20028;-62
2021/01/13 01:58:35;;;;;;;5.73;4.23;;;;;;;1.86;86.75;98033.41;5073063;28;20039;-62
2021/01/13 02:01:03;;;;;;;3.73;3.27;;;;;;;1.90;86.22;98043.53;5072684;28;20025;-62
2021/01/13 02:03:30;;;;;;;3.03;2.80;;;;;;;1.85;85.11;98045.19;5072795;28;20028;-63
2021/01/13 02:06:03;;;;;;;3.80;3.50;;;;;;;1.99;85.13;98043.59;5072423;28;20416;-62
2021/01/13 02:08:36;;;;;;;2.67;2.47;;;;;;;2.07;82.65;98046.16;5072148;28;20059;-63
2021/01/13 02:11:02;;;;;;;1.73;1.63;;;;;;;2.09;81.12;98021.72;5073454;28;20040;-63
2021/01/13 02:13:27;;;;;;;2.13;1.57;;;;;;;2.15;80.45;98014.16;5071337;28;20021;-62
2021/01/13 02:15:53;;;;;;;1.67;1.57;;;;;;;2.18;78.53;98016.69;5073418;28;20350;-62
2021/01/13 02:18:22;;;;;;;1.63;1.53;;;;;;;2.34;78.35;98028.56;5073026;28;20089;-62
2021/01/13 02:20:53;;;;;;;1.60;1.50;;;;;;;2.48;76.36;98026.94;5072447;28;20029;-62
2021/01/13 02:23:33;;;;;;;1.90;1.70;;;;;;;2.42;77.64;98029.41;5076592;28;20036;-62
2021/01/13 02:26:22;;;;;;;2.17;1.97;;;;;;;2.32;77.63;98027.72;5076012;28;20119;-61
2021/01/13 02:28:59;;;;;;;1.63;1.53;;;;;;;2.33;77.50;98033.63;5076976;28;20395;-62
2021/01/13 02:31:44;;;;;;;2.00;1.87;;;;;;;2.34;76.58;98041.19;5075335;28;20063;-62
2021/01/13 02:34:17;;;;;;;1.80;1.70;;;;;;;2.15;77.73;98039.44;5077157;28;20071;-62
2021/01/13 02:37:08;;;;;;;2.30;1.70;;;;;;;2.25;76.77;98031.88;5075376;28;20036;-62
2021/01/13 02:39:35;;;;;;;2.20;2.10;;;;;;;2.25;76.00;98046.22;5075095;28;20361;-62
2021/01/13 02:42:01;;;;;;;2.20;2.00;;;;;;;2.27;74.69;98050.47;5075945;28;20029;-62
2021/01/13 02:44:30;;;;;;;2.73;1.70;;;;;;;2.33;75.61;98051.31;5075573;28;20152;-61
2021/01/13 02:46:55;;;;;;;2.37;2.17;;;;;;;2.23;75.66;98065.59;5076696;28;20036;-61
2021/01/13 02:49:35;;;;;;;1.47;1.27;;;;;;;2.27;74.98;98069.84;5075218;28;20151;-62
2021/01/13 02:52:13;;;;;;;1.50;1.40;;;;;;;2.31;74.21;98071.53;5076128;28;20067;-62
2021/01/13 02:54:43;;;;;;;2.17;1.30;;;;;;;2.25;73.83;98076.56;5075335;28;20478;-62
2021/01/13 02:57:15;;;;;;;2.07;1.30;;;;;;;2.25;73.14;98071.50;5076131;28;20032;-62
2021/01/13 02:59:44;;;;;;;1.50;1.40;;;;;;;2.26;72.60;98074.03;5075084;28;20040;-62
2021/01/13 03:02:10;;;;;;;2.10;1.20;;;;;;;2.14;73.54;98074.00;5075861;28;20457;-62
2021/01/13 03:04:40;;;;;;;2.13;1.10;;;;;;;2.06;73.92;98072.25;5075401;28;20075;-61
2021/01/13 03:07:12;;;;;;;2.47;1.20;;;;;;;2.09;74.33;98069.75;5075961;28;20458;-61
2021/01/13 03:09:47;;;;;;;1.67;1.30;;;;;;;2.05;73.38;98079.00;5074942;28;20029;-62
2021/01/13 03:12:18;;;;;;;1.30;1.20;;;;;;;2.16;71.53;98077.38;5076701;28;20036;-62
2021/01/13 03:14:53;;;;;;;1.73;1.20;;;;;;;2.20;71.63;98086.69;5074702;28;20429;-62
2021/01/13 03:17:33;;;;;;;1.17;1.00;;;;;;;2.09;72.85;98097.53;5075795;28;20432;-62
2021/01/13 03:20:30;;;;;;;1.93;0.90;;;;;;;2.20;71.29;98085.84;5074762;28;20437;-62
2021/01/13 03:23:23;;;;;;;1.80;1.03;;;;;;;2.17;70.65;98095.91;5075580;28;20353;-62
2021/01/13 03:25:55;;;;;;;1.10;1.00;;;;;;;2.27;69.45;98093.44;5075011;28;20036;-62
2021/01/13 03:28:30;;;;;;;1.10;1.00;;;;;;;2.29;68.67;98090.94;5075198;28;20024;-62
2021/01/13 03:30:58;;;;;;;2.20;1.23;;;;;;;2.28;68.10;98109.47;5073308;28;20036;-61
2021/01/13 03:33:23;;;;;;;3.20;1.10;;;;;;;2.20;69.16;98108.59;5073871;28;20062;-63
2021/01/13 03:36:02;;;;;;;1.40;1.13;;;;;;;2.26;66.58;98119.56;5074493;28;20028;-62
2021/01/13 03:38:30;;;;;;;1.87;1.50;;;;;;;2.13;67.93;98124.53;5074187;28;20484;-61
2021/01/13 03:41:07;;;;;;;1.30;1.10;;;;;;;2.15;67.91;98138.91;5073845;28;20028;-62
2021/01/13 03:43:37;;;;;;;2.37;1.50;;;;;;;2.10;68.88;98148.13;5074884;28;20050;-62
2021/01/13 03:46:05;;;;;;;2.10;1.90;;;;;;;2.12;67.70;98145.63;5074300;28;20024;-61
2021/01/13 03:48:50;;;;;;;2.00;1.90;;;;;;;2.11;68.57;98164.16;5074706;28;20120;-61
2021/01/13 03:51:25;;;;;;;1.58;1.48;;;;;;;2.07;66.56;98159.91;5074439;28;20028;-62
2021/01/13 03:53:51;;;;;;;2.27;1.63;;;;;;;2.09;66.60;98173.38;5074679;28;20111;-61
2021/01/13 03:56:25;;;;;;;2.60;1.73;;;;;;;2.08;65.95;98174.25;5073810;28;20031;-61
2021/01/13 03:58:51;;;;;;;2.57;1.70;;;;;;;2.00;66.01;98170.78;5074643;28;20067;-61
2021/01/13 04:01:22;;;;;;;3.23;2.43;;;;;;;1.95;67.15;98172.47;5073844;28;20081;-61
2021/01/13 04:04:06;;;;;;;2.80;1.50;;;;;;;1.90;66.78;98164.00;5074636;28;20020;-61
2021/01/13 04:06:43;;;;;;;3.27;1.97;;;;;;;1.89;66.59;98172.41;5073919;28;20032;-62
2021/01/13 04:09:11;;;;;;;3.07;2.00;;;;;;;1.90;66.29;98169.91;5074738;28;20191;-62
2021/01/13 04:11:37;;;;;;;3.47;1.47;;;;;;;1.86;66.88;98167.34;5073349;28;20020;-62
2021/01/13 04:14:04;;;;;;;2.17;1.73;;;;;;;1.79;67.45;98177.38;5074460;28;20052;-62
2021/01/13 04:16:36;;;;;;;2.90;1.80;;;;;;;1.71;67.85;98183.19;5073562;28;20407;-61
2021/01/13 04:19:03;;;;;;;3.73;2.37;;;;;;;1.60;69.18;98174.69;5073634;28;20032;-62
2021/01/13 04:21:29;;;;;;;2.27;2.07;;;;;;;1.67;68.56;98181.47;5073719;28;20456;-62
2021/01/13 04:23:59;;;;;;;5.33;3.00;;;;;;;1.59;69.62;98189.00;5073849;28;20032;-62
2021/01/13 04:26:26;;;;;;;4.00;2.50;;;;;;;1.48;70.22;98183.03;5074346;28;20092;-62
2021/01/13 04:28:51;;;;;;;4.40;2.30;;;;;;;1.48;69.71;98179.66;5073744;28;20050;-61
2021/01/13 04:31:17;;;;;;;3.13;2.70;;;;;;;1.44;69.98;98183.81;5073676;28;20403;-61
2021/01/13 04:33:43;;;;;;;4.60;2.70;;;;;;;1.45;70.46;98187.16;5074203;28;20020;-61
2021/01/13 04:36:09;;;;;;;3.73;2.53;;;;;;;1.43;69.70;98174.53;5073547;28;20326;-62
2021/01/13 04:38:35;;;;;;;3.40;3.10;;;;;;;1.45;70.25;98175.38;5073904;28;20068;-62
2021/01/13 04:41:06;;;;;;;5.00;2.70;;;;;;;1.33;70.48;98168.56;5072892;28;20062;-62
2021/01/13 04:43:51;;;;;;;5.20;2.77;;;;;;;1.41;69.93;98165.25;5073467;28;20058;-62
2021/01/13 04:46:38;;;;;;;2.55;2.35;;;;;;;1.40;69.18;98182.06;5072356;28;20077;-62
2021/01/13 04:49:06;;;;;;;3.80;2.53;;;;;;;1.34;68.84;98172.78;5072449;28;20040;-62
2021/01/13 04:51:34;;;;;;;2.70;2.50;;;;;;;1.40;69.36;98177.03;5073114;28;20047;-62
2021/01/13 04:54:07;;;;;;;4.00;1.97;;;;;;;1.29;69.71;98181.13;5073920;28;20039;-62
2021/01/13 04:56:45;;;;;;;3.20;2.13;;;;;;;1.28;69.50;98175.22;5058926;28;20361;-62
2021/01/13 04:59:27;;;;;;;2.40;1.90;;;;;;;1.18;69.96;98178.50;5053228;28;20039;-61
2021/01/13 05:02:07;;;;;;;3.07;2.03;;;;;;;1.21;70.20;98185.25;5067359;28;20356;-61
2021/01/13 05:04:51;;;;;;;2.13;1.93;;;;;;;1.15;70.00;98186.03;5073508;28;20365;-61
2021/01/13 05:07:25;;;;;;;2.10;1.70;;;;;;;1.18;70.85;98185.22;5073489;28;20032;-62
2021/01/13 05:10:02;;;;;;;2.13;1.90;;;;;;;1.14;71.13;98178.47;5073398;28;20032;-61
2021/01/13 05:12:52;;;;;;;3.80;1.90;;;;;;;1.09;71.03;98169.97;5073505;28;20028;-62
2021/01/13 05:15:27;;;;;;;4.33;2.13;;;;;;;1.09;71.76;98175.03;5069413;28;20325;-62
2021/01/13 05:18:11;;;;;;;3.35;2.08;;;;;;;1.06;72.39;98175.00;5072800;28;20623;-62
2021/01/13 05:20:44;;;;;;;1.80;1.70;;;;;;;1.10;71.92;98172.53;5072828;28;20112;-62
2021/01/13 05:23:11;;;;;;;1.80;1.70;;;;;;;1.17;72.02;98178.47;5073730;28;20044;-62
2021/01/13 05:25:44;;;;;;;1.33;1.23;;;;;;;1.20;71.78;98169.25;5073010;28;20044;-62
2021/01/13 05:28:13;;;;;;;2.30;1.60;;;;;;;1.29;71.23;98173.56;5073272;28;20028;-62
2021/01/13 05:30:50;;;;;;;2.03;1.53;;;;;;;1.28;71.61;98176.91;5073670;28;20025;-62
2021/01/13 05:33:18;;;;;;;2.47;2.27;;;;;;;1.36;71.23;98182.88;5072238;28;20024;-62
2021/01/13 05:35:47;;;;;;;3.43;2.10;;;;;;;1.39;71.42;98190.50;5073373;28;20020;-62
2021/01/13 05:38:15;;;;;;;1.93;1.83;;;;;;;1.37;71.11;98192.16;5071910;28;20063;-62
2021/01/13 05:40:50;;;;;;;5.00;2.57;;;;;;;1.43;70.59;98201.47;5071880;28;20025;-62
2021/01/13 05:43:17;;;;;;;3.50;2.80;;;;;;;1.48;70.22;98212.47;5072595;28;20020;-62
2021/01/13 05:45:43;;;;;;;2.53;1.77;;;;;;;1.47;71.33;98216.69;5072375;28;20382;-62
2021/01/13 05:48:17;;;;;;;2.40;2.20;;;;;;;1.44;71.18;98220.84;5071738;28;20123;-62
2021/01/13 05:50:44;;;;;;;4.83;2.50;;;;;;;1.35;71.50;98221.59;5072181;28;20476;-62
2021/01/13 05:53:10;;;;;;;2.60;1.80;;;;;;;1.39;71.28;98225.84;5072551;28;20029;-62
2021/01/13 05:55:35;;;;;;;2.50;2.30;;;;;;;1.39;71.06;98225.84;5072588;28;20028;-62
2021/01/13 05:58:03;;;;;;;3.60;2.40;;;;;;;1.38;71.61;98219.09;5076074;28;20024;-62
2021/01/13 06:00:31;;;;;;;2.63;2.20;;;;;;;1.39;71.08;98233.44;5075737;28;20750;-62
2021/01/13 06:03:01;;;;;;;2.30;1.90;;;;;;;1.43;70.56;98230.09;5077110;28;20063;-62
2021/01/13 06:05:28;;;;;;;2.20;2.00;;;;;;;1.40;70.34;98236.81;5075848;28;20036;-62
2021/01/13 06:08:02;;;;;;;3.03;2.03;;;;;;;1.42;70.26;98238.50;5068328;28;20029;-62
2021/01/13 06:10:35;;;;;;;8.37;2.50;;;;;;;1.40;69.72;98245.19;5067169;28;20020;-62
2021/01/13 06:13:03;;;;;;;2.77;2.43;;;;;;;1.37;68.82;98243.50;5067014;28;20030;-62
2021/01/13 06:15:29;;;;;;;2.73;1.70;;;;;;;1.36;67.86;98253.56;5066010;28;20083;-62
2021/01/13 06:17:57;;;;;;;1.70;1.27;;;;;;;1.46;66.34;98247.81;5068137;28;20044;-62
2021/01/13 06:20:28;;;;;;;1.40;1.30;;;;;;;1.50;65.24;98248.69;5066919;28;20023;-62
2021/01/13 06:22:56;;;;;;;2.10;1.00;;;;;;;1.50;64.42;98256.25;5060588;28;20453;-62
2021/01/13 06:25:26;;;;;;;0.80;0.80;;;;;;;1.51;64.36;98263.88;5076681;28;20028;-62
2021/01/13 06:27:58;;;;;;;0.87;0.87;;;;;;;1.47;65.37;98264.66;5075638;28;20055;-62
2021/01/13 06:30:31;;;;;;;2.97;1.13;;;;;;;1.47;65.24;98264.66;5077362;28;20357;-62
2021/01/13 06:33:09;;;;;;;1.50;1.40;;;;;;;1.46;65.63;98268.00;5071734;28;20118;-62
2021/01/13 06:35:41;;;;;;;1.60;1.50;;;;;;;1.35;67.07;98289.78;5057104;28;20029;-62
2021/01/13 06:38:31;;;;;;;4.40;1.40;;;;;;;1.38;67.31;98262.03;5059877;28;20045;-62
2021/01/13 06:41:00;;;;;;;2.23;1.30;;;;;;;1.31;68.43;98283.00;5076151;28;20524;-61
2021/01/13 06:43:26;;;;;;;3.70;2.47;;;;;;;1.33;68.68;98264.50;5075424;28;20052;-61
2021/01/13 06:45:51;;;;;;;2.67;1.50;;;;;;;1.34;68.94;98278.84;5076524;28;20059;-61
2021/01/13 06:48:23;;;;;;;2.23;2.03;;;;;;;1.32;69.14;98274.56;5074761;28;20439;-61
2021/01/13 06:50:54;;;;;;;2.23;1.60;;;;;;;1.22;69.92;98293.00;5075590;28;20048;-62
2021/01/13 06:53:21;;;;;;;2.20;1.90;;;;;;;1.26;69.43;98287.16;5075248;28;20028;-61
2021/01/13 06:55:48;;;;;;;2.87;2.27;;;;;;;1.28;70.23;98298.94;5075560;28;20028;-61
2021/01/13 06:58:15;;;;;;;2.13;1.90;;;;;;;1.23;70.35;98307.31;5075020;28;20090;-61
2021/01/13 07:00:42;;;;;;;1.50;1.33;;;;;;;1.26;67.67;98293.03;5076432;28;20052;-61
2021/01/13 07:03:29;;;;;;;1.93;1.20;;;;;;;1.38;65.96;98290.66;5074989;28;20449;-61
2021/01/13 07:05:56;;;;;;;2.50;1.30;;;;;;;1.35;66.25;98317.56;5074535;28;20032;-61
2021/01/13 07:08:22;;;;;;;1.63;1.53;;;;;;;1.33;67.17;98315.00;5066363;28;20048;-61
2021/01/13 07:10:59;;;;;;;3.60;2.07;;;;;;;1.39;67.21;98334.44;5055018;28;20442;-61
2021/01/13 07:13:26;;;;;;;3.67;1.60;;;;;;;1.39;68.11;98324.34;5064012;28;20054;-61
2021/01/13 07:15:58;;;;;;;2.00;1.47;;;;;;;1.42;67.78;98321.00;5075193;28;20020;-62
2021/01/13 07:18:23;;;;;;;4.23;1.80;;;;;;;1.48;67.27;98324.44;5073790;28;20074;-62
2021/01/13 07:20:49;;;;;;;4.50;2.07;;;;;;;1.49;66.84;98321.06;5075051;28;20028;-62
2021/01/13 07:23:17;;;;;;;2.43;1.80;;;;;;;1.45;66.22;98321.88;5073636;28;20542;-63
2021/01/13 07:25:49;;;;;;;2.70;1.53;;;;;;;1.45;66.77;98321.03;5074845;28;20027;-63
2021/01/13 07:28:16;;;;;;;2.30;1.57;;;;;;;1.41;65.14;98331.91;5075119;28;20154;-65
2021/01/13 07:30:43;;;;;;;1.87;1.40;;;;;;;1.39;65.08;98316.75;5073202;28;20032;-65
2021/01/13 07:33:11;;;;;;;4.60;1.60;;;;;;;1.49;64.41;98330.31;5073903;28;20370;-65
2021/01/13 07:35:43;;;;;;;1.80;1.50;;;;;;;1.50;63.52;98320.25;5075242;28;20032;-63
2021/01/13 07:38:16;;;;;;;1.70;1.33;;;;;;;1.52;62.89;98323.66;5074810;28;20052;-63
2021/01/13 07:40:58;;;;;;;2.33;1.33;;;;;;;1.66;61.02;98334.75;5073911;28;20025;-63
2021/01/13 07:43:54;;;;;;;2.30;0.90;;;;;;;1.65;60.20;98315.38;5074580;28;20032;-63
2021/01/13 07:46:30;;;;;;;1.13;0.80;;;;;;;1.69;58.99;98303.63;5055905;28;20029;-63
2021/01/13 07:49:18;;;;;;;2.43;2.23;;;;;;;1.71;58.71;98312.06;5067203;28;20078;-63
2021/01/13 07:51:54;;;;;;;2.80;1.10;;;;;;;1.69;58.05;98308.69;5054460;28;20020;-63
2021/01/13 07:54:26;;;;;;;2.33;1.40;;;;;;;1.74;56.77;98319.69;5056078;28;20047;-63
2021/01/13 07:56:55;;;;;;;1.10;1.00;;;;;;;1.79;57.35;98318.88;5075266;28;20023;-64
2021/01/13 07:59:23;;;;;;;1.57;1.00;;;;;;;1.87;57.61;98321.50;5072260;28;20031;-64
2021/01/13 08:02:10;;;;;;;1.40;1.20;;;;;;;1.96;57.86;98319.06;5074950;28;20021;-62
2021/01/13 08:04:56;;;;;;;4.47;1.40;;;;;;;2.09;57.00;98317.50;5073571;28;20052;-63
2021/01/13 08:07:37;;;;;;;2.03;1.10;;;;;;;2.11;56.87;98315.84;5073487;28;20104;-63
2021/01/13 08:10:05;;;;;;;1.10;0.90;;;;;;;2.10;57.25;98322.59;5073722;28;20016;-63
2021/01/13 08:12:40;;;;;;;2.73;1.37;;;;;;;2.06;57.19;98327.59;5074789;28;20025;-63
2021/01/13 08:15:42;;;;;;;1.40;0.90;;;;;;;2.12;58.16;98335.25;5072977;28;20029;-64
2021/01/13 08:18:33;;;;;;;1.83;1.10;;;;;;;2.12;57.10;98332.72;5074466;28;20535;-65
2021/01/13 08:21:11;;;;;;;4.20;1.17;;;;;;;2.15;57.47;98347.91;5072004;28;20040;-64
2021/01/13 08:23:41;;;;;;;6.13;1.90;;;;;;;2.18;57.50;98351.31;5059908;28;20063;-64
2021/01/13 08:26:08;;;;;;;1.17;1.07;;;;;;;2.28;55.93;98349.72;5073153;28;20035;-64
2021/01/13 08:28:39;;;;;;;1.07;0.90;;;;;;;2.37;57.23;98339.69;5073656;28;20394;-62
2021/01/13 08:31:06;;;;;;;4.90;1.33;;;;;;;2.22;57.31;98347.13;5069542;28;20057;-63
2021/01/13 08:33:34;;;;;;;3.83;1.60;;;;;;;2.31;57.03;98380.09;5072872;28;20468;-64
2021/01/13 08:36:08;;;;;;;2.10;1.43;;;;;;;2.33;56.45;98345.56;5073267;28;20036;-63
2021/01/13 08:38:33;;;;;;;2.33;1.33;;;;;;;2.36;57.11;98348.09;5068580;28;20355;-63
2021/01/13 08:41:23;;;;;;;1.60;1.10;;;;;;;2.44;56.88;98349.00;5070412;28;20107;-64
2021/01/13 08:44:01;;;;;;;3.43;1.73;;;;;;;2.52;56.01;98352.44;5070993;28;20410;-63
2021/01/13 08:46:35;;;;;;;2.77;1.43;;;;;;;2.49;55.54;98337.25;5072525;28;20086;-64
2021/01/13 08:49:03;;;;;;;2.23;1.43;;;;;;;2.52;56.02;98341.47;5072204;28;20087;-64
2021/01/13 08:51:28;;;;;;;3.10;1.17;;;;;;;2.55;54.67;98341.50;5069709;28;20434;-64
2021/01/13 08:54:20;;;;;;;3.83;1.80;;;;;;;2.71;53.25;98348.41;5070323;28;20028;-64
2021/01/13 08:56:56;;;;;;;2.80;0.87;;;;;;;2.72;51.94;98347.53;5072512;28;20452;-65
2021/01/13 08:59:33;;;;;;;2.27;1.13;;;;;;;2.66;53.08;98338.25;5073206;28;20135;-63
2021/01/13 09:02:05;;;;;;;2.40;1.07;;;;;;;2.68;54.16;98328.97;5073551;28;20029;-63
2021/01/13 09:04:53;;;;;;;3.17;1.77;;;;;;;2.66;54.73;98343.28;5073948;28;20362;-65
2021/01/13 09:07:30;;;;;;;3.70;1.50;;;;;;;2.63;55.48;98352.56;5066845;28;20048;-62
2021/01/13 09:10:02;;;;;;;3.50;1.47;;;;;;;2.77;55.31;98330.69;5073750;28;20085;-62
2021/01/13 09:12:33;;;;;;;3.27;0.90;;;;;;;2.64;54.41;98324.72;5073413;28;20147;-64
2021/01/13 09:15:08;;;;;;;2.83;1.10;;;;;;;2.67;54.04;98334.03;5074033;28;20063;-65
2021/01/13 09:17:35;;;;;;;4.40;1.33;;;;;;;2.65;54.37;98317.97;5073127;28;20021;-64
2021/01/13 09:20:17;;;;;;;3.07;0.90;;;;;;;2.78;54.65;98331.56;5073708;28;20103;-64
2021/01/13 09:22:48;;;;;;;4.27;0.90;;;;;;;2.73;54.27;98342.50;5073366;28;20028;-66
2021/01/13 09:25:17;;;;;;;3.43;1.43;;;;;;;2.74;54.84;98341.66;5066896;28;20081;-65
2021/01/13 09:27:56;;;;;;;3.10;1.13;;;;;;;2.82;54.83;98349.31;5073585;28;20082;-66
2021/01/13 09:30:36;;;;;;;1.27;1.10;;;;;;;2.88;54.22;98339.25;5068805;28;20028;-65
2021/01/13 09:33:08;;;;;;;1.53;1.17;;;;;;;2.79;53.70;98323.97;5077517;28;20034;-65
2021/01/13 09:35:42;;;;;;;2.87;0.97;;;;;;;2.85;54.06;98353.53;5078061;28;20070;-64
2021/01/13 09:38:25;;;;;;;4.97;1.27;;;;;;;2.78;53.21;98332.41;5077051;28;20048;-65
2021/01/13 09:40:50;;;;;;;1.93;1.13;;;;;;;2.81;54.46;98329.03;5076471;28;20085;-65
2021/01/13 09:43:35;;;;;;;1.30;1.20;;;;;;;2.88;53.33;98328.25;5075148;28;20037;-64
2021/01/13 09:46:05;;;;;;;4.03;1.10;;;;;;;2.89;52.96;98315.59;5071367;28;20101;-65
2021/01/13 09:48:33;;;;;;;2.53;1.10;;;;;;;2.95;54.14;98309.72;5076544;28;20023;-65
2021/01/13 09:51:11;;;;;;;4.10;1.57;;;;;;;2.97;55.29;98318.19;5074015;28;20353;-64
2021/01/13 09:53:50;;;;;;;4.57;1.03;;;;;;;2.97;53.99;98318.19;5070778;28;20020;-63
2021/01/13 09:56:16;;;;;;;3.53;1.77;;;;;;;2.93;54.25;98327.44;5073167;28;20063;-63
2021/01/13 09:58:44;;;;;;;1.53;0.97;;;;;;;2.95;54.58;98328.31;5070950;28;20053;-65
2021/01/13 10:01:21;;;;;;;1.27;1.13;;;;;;;3.02;54.41;98314.84;5072754;28;20029;-64
2021/01/13 10:03:51;;;;;;;2.00;1.37;;;;;;;3.05;55.22;98326.69;5068645;28;20031;-65
2021/01/13 10:06:17;;;;;;;3.87;1.20;;;;;;;2.96;53.60;98346.88;5074473;28;20090;-64
2021/01/13 10:08:43;;;;;;;3.47;1.00;;;;;;;2.97;54.28;98303.81;5075168;28;20089;-65
2021/01/13 10:11:10;;;;;;;4.07;1.33;;;;;;;3.02;54.62;98334.22;5076966;28;20034;-63
2021/01/13 10:13:38;;;;;;;1.57;1.20;;;;;;;3.00;55.69;98320.75;5068181;28;20025;-63
2021/01/13 10:16:04;;;;;;;2.90;1.70;;;;;;;2.96;55.67;98308.91;5069162;28;20029;-63
2021/01/13 10:18:31;;;;;;;3.73;1.70;;;;;;;3.08;56.68;98296.31;5073165;28;20040;-64
2021/01/13 10:20:59;;;;;;;3.47;1.47;;;;;;;3.17;54.76;98298.88;5069553;28;20035;-63
2021/01/13 10:23:29;;;;;;;2.00;1.40;;;;;;;3.01;55.92;98303.00;5073022;28;20043;-63
2021/01/13 10:26:08;;;;;;;5.63;2.40;;;;;;;2.82;56.89;98315.56;5068565;28;20020;-63
2021/01/13 10:28:35;;;;;;;2.07;1.70;;;;;;;2.61;58.60;98313.72;5074759;28;20016;-64
2021/01/13 10:31:03;;;;;;;2.27;1.60;;;;;;;2.29;61.75;98305.91;5074382;28;20039;-63
2021/01/13 10:33:54;;;;;;;2.40;1.73;;;;;;;2.41;60.72;98311.06;5076421;28;20455;-63
2021/01/13 10:36:33;;;;;;;2.17;1.80;;;;;;;2.56;59.76;98320.44;5076778;28;20028;-65
2021/01/13 10:39:02;;;;;;;2.40;1.80;;;;;;;2.66;59.85;98315.47;5075940;28;20426;-64
2021/01/13 10:41:32;;;;;;;2.53;1.50;;;;;;;2.62;58.78;98308.69;5075900;28;20475;-63
2021/01/13 10:44:13;;;;;;;3.53;1.90;;;;;;;2.75;59.68;98323.13;5074704;28;20349;-63
2021/01/13 10:46:50;;;;;;;6.53;2.07;;;;;;;2.97;57.96;98313.13;5076501;28;20024;-64
2021/01/13 10:49:28;;;;;;;2.70;1.77;;;;;;;2.96;57.13;98313.97;5076315;28;20036;-62
2021/01/13 10:52:24;;;;;;;3.83;1.70;;;;;;;2.87;56.82;98304.63;5073730;28;20024;-64
2021/01/13 10:54:54;;;;;;;2.50;1.70;;;;;;;2.80;55.14;98345.91;5069294;28;20072;-63
2021/01/13 10:57:48;;;;;;;3.53;1.70;;;;;;;2.79;54.67;98286.00;5068496;28;20372;-65
2021/01/13 11:00:16;;;;;;;2.13;1.40;;;;;;;2.82;55.13;98272.53;5070518;28;20046;-64
2021/01/13 11:02:51;;;;;;;1.20;1.10;;;;;;;3.01;54.53;98272.63;5072474;28;20059;-64
2021/01/13 11:05:17;;;;;;;2.10;1.42;;;;;;;2.97;53.92;98272.63;5073707;28;20032;-64
2021/01/13 11:07:49;;;;;;;3.07;1.67;;;;;;;3.09;54.16;98265.09;5068431;28;20025;-64
2021/01/13 11:10:15;;;;;;;5.50;1.70;;;;;;;3.15;55.52;98254.97;5066175;28;20025;-64
2021/01/13 11:12:41;;;;;;;3.77;2.20;;;;;;;3.11;53.35;98258.31;5064221;28;20048;-64
2021/01/13 11:15:08;;;;;;;1.73;1.60;;;;;;;3.29;55.31;98266.00;5069460;28;20064;-64
2021/01/13 11:17:35;;;;;;;1.87;0.97;;;;;;;3.24;53.86;98255.00;5067185;28;20106;-65
2021/01/13 11:20:02;;;;;;;3.80;1.70;;;;;;;3.26;54.88;98239.81;5072381;28;20020;-63
2021/01/13 11:22:46;;;;;;;2.53;1.67;;;;;;;3.43;53.27;98236.50;5070221;28;20024;-64
2021/01/13 11:25:35;;;;;;;3.30;1.93;;;;;;;3.36;52.81;98256.72;5069224;28;20035;-64
2021/01/13 11:28:07;;;;;;;5.57;2.30;;;;;;;3.37;54.32;98253.34;5073359;28;20035;-64
2021/01/13 11:30:34;;;;;;;2.47;1.80;;;;;;;3.37;54.87;98228.88;5068316;28;20071;-63
2021/01/13 11:33:02;;;;;;;6.20;2.23;;;;;;;3.34;54.44;98249.13;5070344;28;20383;-65
2021/01/13 11:35:29;;;;;;;4.23;1.90;;;;;;;3.47;54.43;98215.41;5074608;28;20445;-64
2021/01/13 11:38:33;;;;;;;1.87;1.60;;;;;;;3.42;54.28;98244.09;5074389;28;20036;-62
2021/01/13 11:41:30;;;;;;;3.67;1.70;;;;;;;3.41;55.45;98230.56;5050674;28;20090;-63
2021/01/13 11:44:59;;;;;;;3.40;1.60;;;;;;;3.38;53.36;98210.31;5073870;28;20044;-64
2021/01/13 11:47:31;;;;;;;5.00;3.13;;;;;;;3.48;54.78;98221.31;5027841;28;20034;-63
2021/01/13 11:50:01;;;;;;;3.87;1.73;;;;;;;3.36;54.22;98211.13;5028445;28;20052;-65
2021/01/13 11:52:29;;;;;;;3.70;2.10;;;;;;;3.29;54.42;98217.03;5027285;28;20039;-64
2021/01/13 11:54:56;;;;;;;3.33;1.70;;;;;;;3.28;53.86;98249.09;5028192;28;20033;-64
2021/01/13 11:57:27;;;;;;;4.70;2.93;;;;;;;3.35;53.85;98210.31;5030813;28;20029;-66
2021/01/13 11:59:55;;;;;;;3.60;1.67;;;;;;;3.26;54.92;98234.75;5029135;28;20049;-66
2021/01/13 12:02:23;;;;;;;9.13;4.23;;;;;;;3.08;55.35;98235.53;5029878;28;20025;-63
2021/01/13 12:04:50;;;;;;;3.13;1.70;;;;;;;3.08;54.58;98241.44;5027433;28;20048;-61